sensor_id;sensor_type;location;lat;lon;timestamp;P1;durP1;ratioP1;P2;durP2;ratioP2
55300;SDS011;58302;51.446;-2.000;2023-08-12T00:00:29;8.75;;;5.30;;
55300;SDS011;58302;51.446;-2.000;2023-08-12T00:02:55;15.52;;;4.85;;
55300;SDS011;58302;51.446;-2.000;2023-08-12T00:05:21;14.80;;;4.88;;
55300;SDS011;58302;51.446;-2.000;2023-08-12T00:07:48;14.30;;;4.80;;
55300;SDS011;58302;51.446;-2.000;2023-08-12T00:10:14;17.15;;;5.97;;
55300;SDS011;58302;51.446;-2.000;2023-08-12T00:12:40;15.32;;;4.95;;
55300;SDS011;58302;51.446;-2.000;2023-08-12T00:15:06;16.40;;;5.60;;
55300;SDS011;58302;51.446;-2.000;2023-08-12T00:17:34;17.15;;;6.28;;
55300;SDS011;58302;51.446;-2.000;2023-08-12T00:20:01;11.93;;;5.78;;
55300;SDS011;58302;51.446;-2.000;2023-08-12T00:22:31;14.10;;;5.20;;
55300;SDS011;58302;51.446;-2.000;2023-08-12T00:24:57;12.60;;;5.78;;
55300;SDS011;58302;51.446;-2.000;2023-08-12T00:27:23;12.02;;;5.25;;
55300;SDS011;58302;51.446;-2.000;2023-08-12T00:29:49;19.83;;;6.25;;
55300;SDS011;58302;51.446;-2.000;2023-08-12T00:32:15;14.90;;;5.68;;
55300;SDS011;58302;51.446;-2.000;2023-08-12T00:34:41;12.90;;;4.70;;
55300;SDS011;58302;51.446;-2.000;2023-08-12T00:37:08;17.70;;;4.88;;
55300;SDS011;58302;51.446;-2.000;2023-08-12T00:39:34;12.82;;;6.10;;
55300;SDS011;58302;51.446;-2.000;2023-08-12T00:41:59;16.90;;;4.85;;
55300;SDS011;58302;51.446;-2.000;2023-08-12T00:44:25;18.40;;;5.78;;
55300;SDS011;58302;51.446;-2.000;2023-08-12T00:46:51;9.10;;;4.85;;
55300;SDS011;58302;51.446;-2.000;2023-08-12T00:49:18;15.10;;;6.57;;
55300;SDS011;58302;51.446;-2.000;2023-08-12T00:51:44;11.65;;;5.38;;
55300;SDS011;58302;51.446;-2.000;2023-08-12T00:54:13;10.18;;;5.30;;
55300;SDS011;58302;51.446;-2.000;2023-08-12T00:56:40;21.75;;;6.35;;
55300;SDS011;58302;51.446;-2.000;2023-08-12T00:59:07;14.27;;;5.38;;
55300;SDS011;58302;51.446;-2.000;2023-08-12T01:01:38;9.55;;;4.60;;
55300;SDS011;58302;51.446;-2.000;2023-08-12T01:04:07;13.00;;;5.25;;
55300;SDS011;58302;51.446;-2.000;2023-08-12T01:06:33;13.10;;;6.35;;
55300;SDS011;58302;51.446;-2.000;2023-08-12T01:08:59;12.38;;;5.28;;
55300;SDS011;58302;51.446;-2.000;2023-08-12T01:16:55;11.60;;;4.53;;
55300;SDS011;58302;51.446;-2.000;2023-08-12T01:22:04;12.18;;;4.00;;
55300;SDS011;58302;51.446;-2.000;2023-08-12T01:24:33;8.90;;;4.18;;
55300;SDS011;58302;51.446;-2.000;2023-08-12T01:27:04;11.85;;;4.57;;
55300;SDS011;58302;51.446;-2.000;2023-08-12T01:29:35;11.52;;;4.28;;
55300;SDS011;58302;51.446;-2.000;2023-08-12T01:34:50;13.70;;;4.68;;
55300;SDS011;58302;51.446;-2.000;2023-08-12T01:37:24;13.60;;;4.88;;
55300;SDS011;58302;51.446;-2.000;2023-08-12T01:39:53;12.02;;;5.65;;
55300;SDS011;58302;51.446;-2.000;2023-08-12T01:42:20;16.50;;;5.18;;
55300;SDS011;58302;51.446;-2.000;2023-08-12T01:44:47;12.60;;;4.70;;
55300;SDS011;58302;51.446;-2.000;2023-08-12T01:47:13;10.95;;;4.40;;
55300;SDS011;58302;51.446;-2.000;2023-08-12T01:49:39;8.93;;;4.72;;
55300;SDS011;58302;51.446;-2.000;2023-08-12T01:52:05;13.82;;;4.30;;
55300;SDS011;58302;51.446;-2.000;2023-08-12T01:54:31;13.38;;;5.05;;
55300;SDS011;58302;51.446;-2.000;2023-08-12T01:57:01;18.67;;;5.25;;
55300;SDS011;58302;51.446;-2.000;2023-08-12T01:59:27;13.73;;;4.72;;
55300;SDS011;58302;51.446;-2.000;2023-08-12T02:01:53;11.32;;;5.80;;
55300;SDS011;58302;51.446;-2.000;2023-08-12T02:04:19;17.70;;;4.22;;
55300;SDS011;58302;51.446;-2.000;2023-08-12T02:06:45;10.77;;;5.43;;
55300;SDS011;58302;51.446;-2.000;2023-08-12T02:09:11;17.30;;;4.68;;
55300;SDS011;58302;51.446;-2.000;2023-08-12T02:11:37;12.02;;;5.30;;
55300;SDS011;58302;51.446;-2.000;2023-08-12T02:14:03;9.40;;;4.70;;
55300;SDS011;58302;51.446;-2.000;2023-08-12T02:16:29;16.23;;;4.75;;
55300;SDS011;58302;51.446;-2.000;2023-08-12T02:18:55;17.58;;;5.78;;
55300;SDS011;58302;51.446;-2.000;2023-08-12T02:21:20;15.98;;;5.90;;
55300;SDS011;58302;51.446;-2.000;2023-08-12T02:23:46;15.07;;;5.50;;
55300;SDS011;58302;51.446;-2.000;2023-08-12T02:26:12;17.83;;;5.50;;
55300;SDS011;58302;51.446;-2.000;2023-08-12T02:28:38;14.63;;;5.72;;
55300;SDS011;58302;51.446;-2.000;2023-08-12T02:31:04;15.32;;;5.10;;
55300;SDS011;58302;51.446;-2.000;2023-08-12T02:33:30;16.50;;;6.40;;
55300;SDS011;58302;51.446;-2.000;2023-08-12T02:35:56;16.20;;;5.90;;
55300;SDS011;58302;51.446;-2.000;2023-08-12T02:38:22;20.67;;;6.43;;
55300;SDS011;58302;51.446;-2.000;2023-08-12T02:40:48;16.85;;;5.53;;
55300;SDS011;58302;51.446;-2.000;2023-08-12T02:43:15;15.02;;;4.20;;
55300;SDS011;58302;51.446;-2.000;2023-08-12T02:45:44;14.95;;;5.25;;
55300;SDS011;58302;51.446;-2.000;2023-08-12T02:48:10;16.08;;;5.30;;
55300;SDS011;58302;51.446;-2.000;2023-08-12T02:50:36;13.60;;;5.32;;
55300;SDS011;58302;51.446;-2.000;2023-08-12T02:53:03;19.52;;;5.97;;
55300;SDS011;58302;51.446;-2.000;2023-08-12T02:55:29;18.33;;;6.47;;
55300;SDS011;58302;51.446;-2.000;2023-08-12T02:57:57;15.13;;;5.18;;
55300;SDS011;58302;51.446;-2.000;2023-08-12T03:00:24;18.48;;;6.85;;
55300;SDS011;58302;51.446;-2.000;2023-08-12T03:02:50;17.90;;;5.78;;
55300;SDS011;58302;51.446;-2.000;2023-08-12T03:05:16;18.52;;;6.53;;
55300;SDS011;58302;51.446;-2.000;2023-08-12T03:07:42;19.40;;;6.35;;
55300;SDS011;58302;51.446;-2.000;2023-08-12T03:10:08;14.95;;;6.70;;
55300;SDS011;58302;51.446;-2.000;2023-08-12T03:12:34;21.25;;;6.60;;
55300;SDS011;58302;51.446;-2.000;2023-08-12T03:15:01;18.98;;;7.47;;
55300;SDS011;58302;51.446;-2.000;2023-08-12T03:17:27;16.92;;;5.88;;
55300;SDS011;58302;51.446;-2.000;2023-08-12T03:19:53;10.80;;;5.80;;
55300;SDS011;58302;51.446;-2.000;2023-08-12T03:22:22;19.25;;;6.75;;
55300;SDS011;58302;51.446;-2.000;2023-08-12T03:24:48;19.75;;;6.90;;
55300;SDS011;58302;51.446;-2.000;2023-08-12T03:27:14;17.27;;;6.15;;
55300;SDS011;58302;51.446;-2.000;2023-08-12T03:29:40;16.42;;;6.80;;
55300;SDS011;58302;51.446;-2.000;2023-08-12T03:32:06;18.90;;;6.97;;
55300;SDS011;58302;51.446;-2.000;2023-08-12T03:34:32;19.58;;;6.97;;
55300;SDS011;58302;51.446;-2.000;2023-08-12T03:36:58;22.80;;;8.02;;
55300;SDS011;58302;51.446;-2.000;2023-08-12T03:39:24;23.85;;;6.88;;
55300;SDS011;58302;51.446;-2.000;2023-08-12T03:41:50;20.50;;;6.68;;
55300;SDS011;58302;51.446;-2.000;2023-08-12T03:44:16;13.38;;;5.68;;
55300;SDS011;58302;51.446;-2.000;2023-08-12T03:46:42;14.80;;;6.00;;
55300;SDS011;58302;51.446;-2.000;2023-08-12T03:49:08;22.00;;;6.97;;
55300;SDS011;58302;51.446;-2.000;2023-08-12T03:51:33;18.05;;;6.15;;
55300;SDS011;58302;51.446;-2.000;2023-08-12T03:53:59;16.15;;;5.85;;
55300;SDS011;58302;51.446;-2.000;2023-08-12T03:56:25;11.20;;;5.63;;
55300;SDS011;58302;51.446;-2.000;2023-08-12T03:58:51;13.48;;;4.88;;
55300;SDS011;58302;51.446;-2.000;2023-08-12T04:01:17;12.70;;;5.95;;
55300;SDS011;58302;51.446;-2.000;2023-08-12T04:03:43;17.05;;;6.60;;
55300;SDS011;58302;51.446;-2.000;2023-08-12T04:06:09;10.40;;;5.00;;
55300;SDS011;58302;51.446;-2.000;2023-08-12T04:08:35;11.50;;;6.05;;
55300;SDS011;58302;51.446;-2.000;2023-08-12T04:11:01;15.23;;;5.45;;
55300;SDS011;58302;51.446;-2.000;2023-08-12T04:13:27;19.58;;;6.18;;
55300;SDS011;58302;51.446;-2.000;2023-08-12T04:15:53;15.73;;;4.88;;
55300;SDS011;58302;51.446;-2.000;2023-08-12T04:18:19;12.00;;;6.00;;
55300;SDS011;58302;51.446;-2.000;2023-08-12T04:20:48;13.32;;;5.40;;
55300;SDS011;58302;51.446;-2.000;2023-08-12T04:23:15;19.45;;;5.30;;
55300;SDS011;58302;51.446;-2.000;2023-08-12T04:25:47;17.95;;;5.88;;
55300;SDS011;58302;51.446;-2.000;2023-08-12T04:28:14;11.93;;;5.28;;
55300;SDS011;58302;51.446;-2.000;2023-08-12T04:30:42;16.15;;;5.65;;
55300;SDS011;58302;51.446;-2.000;2023-08-12T04:33:08;16.15;;;5.65;;
55300;SDS011;58302;51.446;-2.000;2023-08-12T04:35:34;18.05;;;6.43;;
55300;SDS011;58302;51.446;-2.000;2023-08-12T04:38:00;14.05;;;5.63;;
55300;SDS011;58302;51.446;-2.000;2023-08-12T04:40:26;12.80;;;4.88;;
55300;SDS011;58302;51.446;-2.000;2023-08-12T04:42:52;17.30;;;5.32;;
55300;SDS011;58302;51.446;-2.000;2023-08-12T04:45:18;15.18;;;5.68;;
55300;SDS011;58302;51.446;-2.000;2023-08-12T04:47:44;16.67;;;5.07;;
55300;SDS011;58302;51.446;-2.000;2023-08-12T04:50:10;23.20;;;6.03;;
55300;SDS011;58302;51.446;-2.000;2023-08-12T04:52:36;14.20;;;5.55;;
55300;SDS011;58302;51.446;-2.000;2023-08-12T04:55:02;16.50;;;5.57;;
55300;SDS011;58302;51.446;-2.000;2023-08-12T04:57:28;13.45;;;6.15;;
55300;SDS011;58302;51.446;-2.000;2023-08-12T04:59:54;15.10;;;6.32;;
55300;SDS011;58302;51.446;-2.000;2023-08-12T05:02:21;15.32;;;5.40;;
55300;SDS011;58302;51.446;-2.000;2023-08-12T05:04:50;17.63;;;5.78;;
55300;SDS011;58302;51.446;-2.000;2023-08-12T05:07:17;25.85;;;7.00;;
55300;SDS011;58302;51.446;-2.000;2023-08-12T05:09:43;10.77;;;4.80;;
55300;SDS011;58302;51.446;-2.000;2023-08-12T05:12:10;14.57;;;6.32;;
55300;SDS011;58302;51.446;-2.000;2023-08-12T05:14:37;19.92;;;6.07;;
55300;SDS011;58302;51.446;-2.000;2023-08-12T05:17:03;11.93;;;5.05;;
55300;SDS011;58302;51.446;-2.000;2023-08-12T05:19:29;18.48;;;6.03;;
55300;SDS011;58302;51.446;-2.000;2023-08-12T05:21:56;17.83;;;5.38;;
55300;SDS011;58302;51.446;-2.000;2023-08-12T05:24:22;15.15;;;5.85;;
55300;SDS011;58302;51.446;-2.000;2023-08-12T05:26:48;20.38;;;6.43;;
55300;SDS011;58302;51.446;-2.000;2023-08-12T05:29:14;15.77;;;5.70;;
55300;SDS011;58302;51.446;-2.000;2023-08-12T05:31:40;14.75;;;6.28;;
55300;SDS011;58302;51.446;-2.000;2023-08-12T05:34:06;15.38;;;6.72;;
55300;SDS011;58302;51.446;-2.000;2023-08-12T05:36:32;16.30;;;5.60;;
55300;SDS011;58302;51.446;-2.000;2023-08-12T05:38:58;15.50;;;5.88;;
55300;SDS011;58302;51.446;-2.000;2023-08-12T05:41:24;15.48;;;5.05;;
55300;SDS011;58302;51.446;-2.000;2023-08-12T05:43:50;11.93;;;5.45;;
55300;SDS011;58302;51.446;-2.000;2023-08-12T05:46:16;13.85;;;5.00;;
55300;SDS011;58302;51.446;-2.000;2023-08-12T05:48:42;9.63;;;5.47;;
55300;SDS011;58302;51.446;-2.000;2023-08-12T05:51:08;18.25;;;4.45;;
55300;SDS011;58302;51.446;-2.000;2023-08-12T05:53:34;17.67;;;4.50;;
55300;SDS011;58302;51.446;-2.000;2023-08-12T05:56:00;12.43;;;4.10;;
55300;SDS011;58302;51.446;-2.000;2023-08-12T05:58:26;12.27;;;4.80;;
55300;SDS011;58302;51.446;-2.000;2023-08-12T06:00:52;16.02;;;6.45;;
55300;SDS011;58302;51.446;-2.000;2023-08-12T06:03:18;11.68;;;4.28;;
55300;SDS011;58302;51.446;-2.000;2023-08-12T06:05:47;12.98;;;5.80;;
55300;SDS011;58302;51.446;-2.000;2023-08-12T06:08:13;12.82;;;4.20;;
55300;SDS011;58302;51.446;-2.000;2023-08-12T06:10:39;11.50;;;5.15;;
55300;SDS011;58302;51.446;-2.000;2023-08-12T06:13:05;10.43;;;4.57;;
55300;SDS011;58302;51.446;-2.000;2023-08-12T06:15:32;14.88;;;4.85;;
55300;SDS011;58302;51.446;-2.000;2023-08-12T06:18:02;15.50;;;5.25;;
55300;SDS011;58302;51.446;-2.000;2023-08-12T06:20:28;18.77;;;6.15;;
55300;SDS011;58302;51.446;-2.000;2023-08-12T06:22:54;13.20;;;3.72;;
55300;SDS011;58302;51.446;-2.000;2023-08-12T06:25:21;15.57;;;5.00;;
55300;SDS011;58302;51.446;-2.000;2023-08-12T06:27:47;18.15;;;4.80;;
55300;SDS011;58302;51.446;-2.000;2023-08-12T06:30:14;12.07;;;4.07;;
55300;SDS011;58302;51.446;-2.000;2023-08-12T06:32:40;10.10;;;4.88;;
55300;SDS011;58302;51.446;-2.000;2023-08-12T06:35:06;12.05;;;4.22;;
55300;SDS011;58302;51.446;-2.000;2023-08-12T06:37:33;13.48;;;6.00;;
55300;SDS011;58302;51.446;-2.000;2023-08-12T06:39:59;14.48;;;4.53;;
55300;SDS011;58302;51.446;-2.000;2023-08-12T06:42:25;15.52;;;4.03;;
55300;SDS011;58302;51.446;-2.000;2023-08-12T06:44:57;11.80;;;3.60;;
55300;SDS011;58302;51.446;-2.000;2023-08-12T06:47:24;13.15;;;5.45;;
55300;SDS011;58302;51.446;-2.000;2023-08-12T06:49:52;12.48;;;5.43;;
55300;SDS011;58302;51.446;-2.000;2023-08-12T06:52:18;14.60;;;4.40;;
55300;SDS011;58302;51.446;-2.000;2023-08-12T06:54:44;15.05;;;4.88;;
55300;SDS011;58302;51.446;-2.000;2023-08-12T06:57:10;13.63;;;4.03;;
55300;SDS011;58302;51.446;-2.000;2023-08-12T06:59:37;11.88;;;3.20;;
55300;SDS011;58302;51.446;-2.000;2023-08-12T07:02:04;20.98;;;6.35;;
55300;SDS011;58302;51.446;-2.000;2023-08-12T07:04:31;16.23;;;5.00;;
55300;SDS011;58302;51.446;-2.000;2023-08-12T07:06:57;10.48;;;4.40;;
55300;SDS011;58302;51.446;-2.000;2023-08-12T07:09:23;12.25;;;3.72;;
55300;SDS011;58302;51.446;-2.000;2023-08-12T07:11:48;10.32;;;3.33;;
55300;SDS011;58302;51.446;-2.000;2023-08-12T07:14:14;16.63;;;5.35;;
55300;SDS011;58302;51.446;-2.000;2023-08-12T07:16:40;10.73;;;3.22;;
55300;SDS011;58302;51.446;-2.000;2023-08-12T07:19:06;11.48;;;3.88;;
55300;SDS011;58302;51.446;-2.000;2023-08-12T07:21:32;9.48;;;4.38;;
55300;SDS011;58302;51.446;-2.000;2023-08-12T07:23:58;6.90;;;3.72;;
55300;SDS011;58302;51.446;-2.000;2023-08-12T07:26:24;11.88;;;3.83;;
55300;SDS011;58302;51.446;-2.000;2023-08-12T07:28:50;11.20;;;4.22;;
55300;SDS011;58302;51.446;-2.000;2023-08-12T07:31:17;10.63;;;3.60;;
55300;SDS011;58302;51.446;-2.000;2023-08-12T07:33:43;9.60;;;3.15;;
55300;SDS011;58302;51.446;-2.000;2023-08-12T07:36:09;9.65;;;3.28;;
55300;SDS011;58302;51.446;-2.000;2023-08-12T07:38:35;11.18;;;2.88;;
55300;SDS011;58302;51.446;-2.000;2023-08-12T07:41:02;10.55;;;3.20;;
55300;SDS011;58302;51.446;-2.000;2023-08-12T07:43:28;9.38;;;3.40;;
55300;SDS011;58302;51.446;-2.000;2023-08-12T07:45:53;13.57;;;3.47;;
55300;SDS011;58302;51.446;-2.000;2023-08-12T07:48:20;11.90;;;3.50;;
55300;SDS011;58302;51.446;-2.000;2023-08-12T07:50:46;11.23;;;3.47;;
55300;SDS011;58302;51.446;-2.000;2023-08-12T07:53:15;8.23;;;3.47;;
55300;SDS011;58302;51.446;-2.000;2023-08-12T07:55:42;9.43;;;3.55;;
55300;SDS011;58302;51.446;-2.000;2023-08-12T07:58:08;6.78;;;2.03;;
55300;SDS011;58302;51.446;-2.000;2023-08-12T08:00:34;11.88;;;4.38;;
55300;SDS011;58302;51.446;-2.000;2023-08-12T08:03:00;6.35;;;3.20;;
55300;SDS011;58302;51.446;-2.000;2023-08-12T08:05:26;8.65;;;2.90;;
55300;SDS011;58302;51.446;-2.000;2023-08-12T08:07:52;7.32;;;2.67;;
55300;SDS011;58302;51.446;-2.000;2023-08-12T08:10:18;8.35;;;2.75;;
55300;SDS011;58302;51.446;-2.000;2023-08-12T08:12:43;11.32;;;3.45;;
55300;SDS011;58302;51.446;-2.000;2023-08-12T08:15:09;8.48;;;2.70;;
55300;SDS011;58302;51.446;-2.000;2023-08-12T08:17:35;4.28;;;1.85;;
55300;SDS011;58302;51.446;-2.000;2023-08-12T08:20:01;6.80;;;2.53;;
55300;SDS011;58302;51.446;-2.000;2023-08-12T08:22:28;7.65;;;2.22;;
55300;SDS011;58302;51.446;-2.000;2023-08-12T08:24:54;4.88;;;1.50;;
55300;SDS011;58302;51.446;-2.000;2023-08-12T08:27:21;5.07;;;2.33;;
55300;SDS011;58302;51.446;-2.000;2023-08-12T08:29:47;9.27;;;2.53;;
55300;SDS011;58302;51.446;-2.000;2023-08-12T08:32:13;9.70;;;2.30;;
55300;SDS011;58302;51.446;-2.000;2023-08-12T08:34:39;9.95;;;3.33;;
55300;SDS011;58302;51.446;-2.000;2023-08-12T08:37:05;3.88;;;1.40;;
55300;SDS011;58302;51.446;-2.000;2023-08-12T08:39:31;4.85;;;1.75;;
55300;SDS011;58302;51.446;-2.000;2023-08-12T08:41:57;6.05;;;2.00;;
55300;SDS011;58302;51.446;-2.000;2023-08-12T08:44:24;4.57;;;1.48;;
55300;SDS011;58302;51.446;-2.000;2023-08-12T08:46:56;5.88;;;2.28;;
55300;SDS011;58302;51.446;-2.000;2023-08-12T08:49:24;3.90;;;2.25;;
55300;SDS011;58302;51.446;-2.000;2023-08-12T08:51:51;11.07;;;2.40;;
55300;SDS011;58302;51.446;-2.000;2023-08-12T08:54:18;4.72;;;1.83;;
55300;SDS011;58302;51.446;-2.000;2023-08-12T08:56:45;5.65;;;2.05;;
55300;SDS011;58302;51.446;-2.000;2023-08-12T08:59:13;9.25;;;2.42;;
55300;SDS011;58302;51.446;-2.000;2023-08-12T09:01:40;5.88;;;2.92;;
55300;SDS011;58302;51.446;-2.000;2023-08-12T09:04:07;5.15;;;1.88;;
55300;SDS011;58302;51.446;-2.000;2023-08-12T09:06:34;6.45;;;3.10;;
55300;SDS011;58302;51.446;-2.000;2023-08-12T09:09:02;7.82;;;2.67;;
55300;SDS011;58302;51.446;-2.000;2023-08-12T09:11:31;7.30;;;2.15;;
55300;SDS011;58302;51.446;-2.000;2023-08-12T09:13:59;6.50;;;1.88;;
55300;SDS011;58302;51.446;-2.000;2023-08-12T09:16:25;5.00;;;2.22;;
55300;SDS011;58302;51.446;-2.000;2023-08-12T09:18:57;6.00;;;2.47;;
55300;SDS011;58302;51.446;-2.000;2023-08-12T09:21:24;6.20;;;1.98;;
55300;SDS011;58302;51.446;-2.000;2023-08-12T09:23:50;10.80;;;2.45;;
55300;SDS011;58302;51.446;-2.000;2023-08-12T09:26:17;8.23;;;2.78;;
55300;SDS011;58302;51.446;-2.000;2023-08-12T09:28:45;7.00;;;3.15;;
55300;SDS011;58302;51.446;-2.000;2023-08-12T09:31:25;10.00;;;3.08;;
55300;SDS011;58302;51.446;-2.000;2023-08-12T09:34:05;4.55;;;2.17;;
55300;SDS011;58302;51.446;-2.000;2023-08-12T09:36:35;8.63;;;4.30;;
55300;SDS011;58302;51.446;-2.000;2023-08-12T09:39:05;5.35;;;2.63;;
55300;SDS011;58302;51.446;-2.000;2023-08-12T09:41:34;5.80;;;2.53;;
55300;SDS011;58302;51.446;-2.000;2023-08-12T09:44:03;4.75;;;2.38;;
55300;SDS011;58302;51.446;-2.000;2023-08-12T09:46:32;3.17;;;1.58;;
55300;SDS011;58302;51.446;-2.000;2023-08-12T09:48:59;3.10;;;1.90;;
55300;SDS011;58302;51.446;-2.000;2023-08-12T09:51:25;4.13;;;1.70;;
55300;SDS011;58302;51.446;-2.000;2023-08-12T09:53:51;3.47;;;1.88;;
55300;SDS011;58302;51.446;-2.000;2023-08-12T09:56:18;3.25;;;1.70;;
55300;SDS011;58302;51.446;-2.000;2023-08-12T09:58:47;3.58;;;2.00;;
55300;SDS011;58302;51.446;-2.000;2023-08-12T10:01:16;3.28;;;1.63;;
55300;SDS011;58302;51.446;-2.000;2023-08-12T10:03:44;3.38;;;1.83;;
55300;SDS011;58302;51.446;-2.000;2023-08-12T10:06:14;5.85;;;1.95;;
55300;SDS011;58302;51.446;-2.000;2023-08-12T10:08:41;5.63;;;2.08;;
55300;SDS011;58302;51.446;-2.000;2023-08-12T10:11:07;4.57;;;1.60;;
55300;SDS011;58302;51.446;-2.000;2023-08-12T10:13:34;7.00;;;2.70;;
55300;SDS011;58302;51.446;-2.000;2023-08-12T10:16:00;4.70;;;1.80;;
55300;SDS011;58302;51.446;-2.000;2023-08-12T10:18:27;8.63;;;2.40;;
55300;SDS011;58302;51.446;-2.000;2023-08-12T10:20:56;6.50;;;2.47;;
55300;SDS011;58302;51.446;-2.000;2023-08-12T10:23:24;5.93;;;2.92;;
55300;SDS011;58302;51.446;-2.000;2023-08-12T10:25:50;7.78;;;1.88;;
55300;SDS011;58302;51.446;-2.000;2023-08-12T10:28:19;5.88;;;2.22;;
55300;SDS011;58302;51.446;-2.000;2023-08-12T10:30:46;5.57;;;2.15;;
55300;SDS011;58302;51.446;-2.000;2023-08-12T10:33:14;6.35;;;1.70;;
55300;SDS011;58302;51.446;-2.000;2023-08-12T10:35:44;5.15;;;1.98;;
55300;SDS011;58302;51.446;-2.000;2023-08-12T10:38:19;4.22;;;2.20;;
55300;SDS011;58302;51.446;-2.000;2023-08-12T10:40:49;6.75;;;1.95;;
55300;SDS011;58302;51.446;-2.000;2023-08-12T10:43:16;5.90;;;1.92;;
55300;SDS011;58302;51.446;-2.000;2023-08-12T10:48:21;4.80;;;1.90;;
55300;SDS011;58302;51.446;-2.000;2023-08-12T10:50:52;5.95;;;2.05;;
55300;SDS011;58302;51.446;-2.000;2023-08-12T10:53:23;3.85;;;1.60;;
55300;SDS011;58302;51.446;-2.000;2023-08-12T10:55:56;5.53;;;2.08;;
55300;SDS011;58302;51.446;-2.000;2023-08-12T10:58:28;4.97;;;2.05;;
55300;SDS011;58302;51.446;-2.000;2023-08-12T11:00:54;6.85;;;2.03;;
55300;SDS011;58302;51.446;-2.000;2023-08-12T11:03:21;5.95;;;2.25;;
55300;SDS011;58302;51.446;-2.000;2023-08-12T11:05:48;6.22;;;2.13;;
55300;SDS011;58302;51.446;-2.000;2023-08-12T11:08:14;5.88;;;2.60;;
55300;SDS011;58302;51.446;-2.000;2023-08-12T11:10:40;3.38;;;1.70;;
55300;SDS011;58302;51.446;-2.000;2023-08-12T11:13:06;3.33;;;1.75;;
55300;SDS011;58302;51.446;-2.000;2023-08-12T11:18:05;6.28;;;2.20;;
55300;SDS011;58302;51.446;-2.000;2023-08-12T11:20:34;4.97;;;2.60;;
55300;SDS011;58302;51.446;-2.000;2023-08-12T11:23:02;3.33;;;1.73;;
55300;SDS011;58302;51.446;-2.000;2023-08-12T11:25:29;2.63;;;1.20;;
55300;SDS011;58302;51.446;-2.000;2023-08-12T11:27:56;3.50;;;1.92;;
55300;SDS011;58302;51.446;-2.000;2023-08-12T11:30:23;4.20;;;1.70;;
55300;SDS011;58302;51.446;-2.000;2023-08-12T11:32:50;5.22;;;1.88;;
55300;SDS011;58302;51.446;-2.000;2023-08-12T11:35:18;4.88;;;1.70;;
55300;SDS011;58302;51.446;-2.000;2023-08-12T11:37:45;2.97;;;1.40;;
55300;SDS011;58302;51.446;-2.000;2023-08-12T11:40:14;4.35;;;1.73;;
55300;SDS011;58302;51.446;-2.000;2023-08-12T11:42:41;3.63;;;1.58;;
55300;SDS011;58302;51.446;-2.000;2023-08-12T11:45:15;3.33;;;1.50;;
55300;SDS011;58302;51.446;-2.000;2023-08-12T11:47:42;7.05;;;2.17;;
55300;SDS011;58302;51.446;-2.000;2023-08-12T11:50:10;5.78;;;1.70;;
55300;SDS011;58302;51.446;-2.000;2023-08-12T11:52:38;3.90;;;1.63;;
55300;SDS011;58302;51.446;-2.000;2023-08-12T11:55:05;6.32;;;1.70;;
55300;SDS011;58302;51.446;-2.000;2023-08-12T11:57:31;5.20;;;2.00;;
55300;SDS011;58302;51.446;-2.000;2023-08-12T12:00:03;6.07;;;2.10;;
55300;SDS011;58302;51.446;-2.000;2023-08-12T12:02:45;4.85;;;1.90;;
55300;SDS011;58302;51.446;-2.000;2023-08-12T12:05:16;4.10;;;1.58;;
55300;SDS011;58302;51.446;-2.000;2023-08-12T12:07:43;5.57;;;1.60;;
55300;SDS011;58302;51.446;-2.000;2023-08-12T12:10:12;5.72;;;1.70;;
55300;SDS011;58302;51.446;-2.000;2023-08-12T12:12:41;5.28;;;1.70;;
55300;SDS011;58302;51.446;-2.000;2023-08-12T12:15:07;6.25;;;2.47;;
55300;SDS011;58302;51.446;-2.000;2023-08-12T12:17:38;5.90;;;2.10;;
55300;SDS011;58302;51.446;-2.000;2023-08-12T12:20:04;5.85;;;1.85;;
55300;SDS011;58302;51.446;-2.000;2023-08-12T12:22:32;4.13;;;1.88;;
55300;SDS011;58302;51.446;-2.000;2023-08-12T12:24:59;4.78;;;2.42;;
55300;SDS011;58302;51.446;-2.000;2023-08-12T12:27:26;5.18;;;1.75;;
55300;SDS011;58302;51.446;-2.000;2023-08-12T12:29:53;5.10;;;2.00;;
55300;SDS011;58302;51.446;-2.000;2023-08-12T12:32:19;5.78;;;1.80;;
55300;SDS011;58302;51.446;-2.000;2023-08-12T12:34:46;4.47;;;1.85;;
55300;SDS011;58302;51.446;-2.000;2023-08-12T12:37:12;6.38;;;2.00;;
55300;SDS011;58302;51.446;-2.000;2023-08-12T12:39:39;5.55;;;2.20;;
55300;SDS011;58302;51.446;-2.000;2023-08-12T12:42:05;10.82;;;2.45;;
55300;SDS011;58302;51.446;-2.000;2023-08-12T12:44:32;5.78;;;2.35;;
55300;SDS011;58302;51.446;-2.000;2023-08-12T12:46:57;6.03;;;2.15;;
55300;SDS011;58302;51.446;-2.000;2023-08-12T12:49:24;6.82;;;1.85;;
55300;SDS011;58302;51.446;-2.000;2023-08-12T12:51:49;6.88;;;2.10;;
55300;SDS011;58302;51.446;-2.000;2023-08-12T12:54:15;5.50;;;2.13;;
55300;SDS011;58302;51.446;-2.000;2023-08-12T12:56:42;5.43;;;2.40;;
55300;SDS011;58302;51.446;-2.000;2023-08-12T12:59:08;9.02;;;2.67;;
55300;SDS011;58302;51.446;-2.000;2023-08-12T13:01:34;8.45;;;2.63;;
55300;SDS011;58302;51.446;-2.000;2023-08-12T13:04:00;9.88;;;2.97;;
55300;SDS011;58302;51.446;-2.000;2023-08-12T13:06:25;7.72;;;3.08;;
55300;SDS011;58302;51.446;-2.000;2023-08-12T13:08:52;7.88;;;2.58;;
55300;SDS011;58302;51.446;-2.000;2023-08-12T13:11:17;9.05;;;2.03;;
55300;SDS011;58302;51.446;-2.000;2023-08-12T13:13:43;6.05;;;2.00;;
55300;SDS011;58302;51.446;-2.000;2023-08-12T13:16:09;9.77;;;2.75;;
55300;SDS011;58302;51.446;-2.000;2023-08-12T13:18:35;8.15;;;2.47;;
55300;SDS011;58302;51.446;-2.000;2023-08-12T13:21:01;8.55;;;2.25;;
55300;SDS011;58302;51.446;-2.000;2023-08-12T13:23:27;6.75;;;2.75;;
55300;SDS011;58302;51.446;-2.000;2023-08-12T13:25:53;7.07;;;2.40;;
55300;SDS011;58302;51.446;-2.000;2023-08-12T13:28:19;8.55;;;2.22;;
55300;SDS011;58302;51.446;-2.000;2023-08-12T13:30:45;8.20;;;2.28;;
55300;SDS011;58302;51.446;-2.000;2023-08-12T13:33:11;6.63;;;1.98;;
55300;SDS011;58302;51.446;-2.000;2023-08-12T13:35:37;5.55;;;2.15;;
55300;SDS011;58302;51.446;-2.000;2023-08-12T13:38:03;6.95;;;2.47;;
55300;SDS011;58302;51.446;-2.000;2023-08-12T13:40:29;7.53;;;2.13;;
55300;SDS011;58302;51.446;-2.000;2023-08-12T13:42:56;6.88;;;2.15;;
55300;SDS011;58302;51.446;-2.000;2023-08-12T13:45:22;6.57;;;1.85;;
55300;SDS011;58302;51.446;-2.000;2023-08-12T13:47:49;4.63;;;1.65;;
55300;SDS011;58302;51.446;-2.000;2023-08-12T13:51:15;4.07;;;1.70;;
55300;SDS011;58302;51.446;-2.000;2023-08-12T13:53:47;5.13;;;2.65;;
55300;SDS011;58302;51.446;-2.000;2023-08-12T13:56:13;4.85;;;1.80;;
55300;SDS011;58302;51.446;-2.000;2023-08-12T13:58:39;2.38;;;1.42;;
55300;SDS011;58302;51.446;-2.000;2023-08-12T14:01:06;3.00;;;1.55;;
55300;SDS011;58302;51.446;-2.000;2023-08-12T14:03:32;2.40;;;2.17;;
55300;SDS011;58302;51.446;-2.000;2023-08-12T14:05:58;4.15;;;1.92;;
55300;SDS011;58302;51.446;-2.000;2023-08-12T14:08:24;3.45;;;1.45;;
55300;SDS011;58302;51.446;-2.000;2023-08-12T14:10:50;4.40;;;1.73;;
55300;SDS011;58302;51.446;-2.000;2023-08-12T14:13:16;4.97;;;2.22;;
55300;SDS011;58302;51.446;-2.000;2023-08-12T14:15:42;6.50;;;2.35;;
55300;SDS011;58302;51.446;-2.000;2023-08-12T14:18:08;5.28;;;1.58;;
55300;SDS011;58302;51.446;-2.000;2023-08-12T14:20:37;4.28;;;1.58;;
55300;SDS011;58302;51.446;-2.000;2023-08-12T14:23:05;2.75;;;1.10;;
55300;SDS011;58302;51.446;-2.000;2023-08-12T14:25:32;4.68;;;1.55;;
55300;SDS011;58302;51.446;-2.000;2023-08-12T14:28:02;2.25;;;1.02;;
55300;SDS011;58302;51.446;-2.000;2023-08-12T14:31:17;1.80;;;1.25;;
55300;SDS011;58302;51.446;-2.000;2023-08-12T14:33:43;0.85;;;0.70;;
55300;SDS011;58302;51.446;-2.000;2023-08-12T14:36:09;2.95;;;1.00;;
55300;SDS011;58302;51.446;-2.000;2023-08-12T14:38:35;1.42;;;0.85;;
55300;SDS011;58302;51.446;-2.000;2023-08-12T14:41:01;2.08;;;1.08;;
55300;SDS011;58302;51.446;-2.000;2023-08-12T14:43:30;1.55;;;1.33;;